sensor_id;sensor_type;location;lat;lon;timestamp;P1;durP1;ratioP1;P2;durP2;ratioP2
4517;SDS011;2271;49.464;11.070;2023-01-19T00:00:36;11.63;;;6.57;;
4517;SDS011;2271;49.464;11.070;2023-01-19T00:03:02;10.43;;;6.70;;
4517;SDS011;2271;49.464;11.070;2023-01-19T00:05:29;16.63;;;7.03;;
4517;SDS011;2271;49.464;11.070;2023-01-19T00:07:55;9.63;;;6.10;;
4517;SDS011;2271;49.464;11.070;2023-01-19T00:10:20;11.47;;;6.60;;
4517;SDS011;2271;49.464;11.070;2023-01-19T00:12:46;18.47;;;6.87;;
4517;SDS011;2271;49.464;11.070;2023-01-19T00:15:12;10.40;;;6.93;;
4517;SDS011;2271;49.464;11.070;2023-01-19T00:17:37;14.63;;;7.47;;
4517;SDS011;2271;49.464;11.070;2023-01-19T00:20:05;14.80;;;6.27;;
4517;SDS011;2271;49.464;11.070;2023-01-19T00:22:32;14.97;;;7.37;;
4517;SDS011;2271;49.464;11.070;2023-01-19T00:24:57;9.97;;;7.17;;
4517;SDS011;2271;49.464;11.070;2023-01-19T00:27:23;10.30;;;6.57;;
4517;SDS011;2271;49.464;11.070;2023-01-19T00:29:49;11.63;;;7.33;;
4517;SDS011;2271;49.464;11.070;2023-01-19T00:32:15;12.23;;;7.60;;
4517;SDS011;2271;49.464;11.070;2023-01-19T00:34:41;16.70;;;7.20;;
4517;SDS011;2271;49.464;11.070;2023-01-19T00:37:13;11.60;;;8.00;;
4517;SDS011;2271;49.464;11.070;2023-01-19T00:39:40;11.03;;;7.37;;
4517;SDS011;2271;49.464;11.070;2023-01-19T00:42:05;15.97;;;8.10;;
4517;SDS011;2271;49.464;11.070;2023-01-19T00:44:51;13.43;;;8.23;;
4517;SDS011;2271;49.464;11.070;2023-01-19T00:47:16;14.30;;;8.30;;
4517;SDS011;2271;49.464;11.070;2023-01-19T00:49:42;10.73;;;7.33;;
4517;SDS011;2271;49.464;11.070;2023-01-19T00:52:07;13.83;;;8.57;;
4517;SDS011;2271;49.464;11.070;2023-01-19T00:54:33;15.03;;;8.53;;
4517;SDS011;2271;49.464;11.070;2023-01-19T00:56:59;15.73;;;8.90;;
4517;SDS011;2271;49.464;11.070;2023-01-19T00:59:25;11.90;;;7.43;;
4517;SDS011;2271;49.464;11.070;2023-01-19T01:01:51;11.77;;;8.27;;
4517;SDS011;2271;49.464;11.070;2023-01-19T01:04:16;13.73;;;8.03;;
4517;SDS011;2271;49.464;11.070;2023-01-19T01:06:42;11.43;;;7.90;;
4517;SDS011;2271;49.464;11.070;2023-01-19T01:09:07;15.23;;;9.07;;
4517;SDS011;2271;49.464;11.070;2023-01-19T01:11:36;16.00;;;7.93;;
4517;SDS011;2271;49.464;11.070;2023-01-19T01:14:06;13.70;;;7.77;;
4517;SDS011;2271;49.464;11.070;2023-01-19T01:16:33;17.13;;;9.27;;
4517;SDS011;2271;49.464;11.070;2023-01-19T01:18:59;14.00;;;8.70;;
4517;SDS011;2271;49.464;11.070;2023-01-19T01:21:24;14.50;;;9.37;;
4517;SDS011;2271;49.464;11.070;2023-01-19T01:23:50;14.10;;;8.50;;
4517;SDS011;2271;49.464;11.070;2023-01-19T01:26:16;16.40;;;9.33;;
4517;SDS011;2271;49.464;11.070;2023-01-19T01:28:41;14.93;;;8.50;;
4517;SDS011;2271;49.464;11.070;2023-01-19T01:31:07;10.43;;;8.03;;
4517;SDS011;2271;49.464;11.070;2023-01-19T01:33:32;18.43;;;9.60;;
4517;SDS011;2271;49.464;11.070;2023-01-19T01:35:58;12.63;;;8.83;;
4517;SDS011;2271;49.464;11.070;2023-01-19T01:38:24;15.67;;;9.30;;
4517;SDS011;2271;49.464;11.070;2023-01-19T01:40:49;14.57;;;8.63;;
4517;SDS011;2271;49.464;11.070;2023-01-19T01:43:16;17.97;;;10.03;;
4517;SDS011;2271;49.464;11.070;2023-01-19T01:45:43;16.93;;;8.80;;
4517;SDS011;2271;49.464;11.070;2023-01-19T01:50:43;16.67;;;9.17;;
4517;SDS011;2271;49.464;11.070;2023-01-19T01:53:34;14.47;;;9.27;;
4517;SDS011;2271;49.464;11.070;2023-01-19T01:56:01;14.43;;;7.97;;
4517;SDS011;2271;49.464;11.070;2023-01-19T01:58:31;14.50;;;9.53;;
4517;SDS011;2271;49.464;11.070;2023-01-19T02:00:58;15.63;;;9.00;;
4517;SDS011;2271;49.464;11.070;2023-01-19T02:03:42;16.43;;;9.33;;
4517;SDS011;2271;49.464;11.070;2023-01-19T02:06:08;18.60;;;8.83;;
4517;SDS011;2271;49.464;11.070;2023-01-19T02:08:36;12.23;;;7.30;;
4517;SDS011;2271;49.464;11.070;2023-01-19T02:11:28;13.30;;;8.90;;
4517;SDS011;2271;49.464;11.070;2023-01-19T02:14:13;11.33;;;8.07;;
4517;SDS011;2271;49.464;11.070;2023-01-19T02:16:38;16.17;;;9.00;;
4517;SDS011;2271;49.464;11.070;2023-01-19T02:19:06;16.83;;;8.53;;
4517;SDS011;2271;49.464;11.070;2023-01-19T02:21:42;13.53;;;7.77;;
4517;SDS011;2271;49.464;11.070;2023-01-19T02:24:17;13.87;;;9.43;;
4517;SDS011;2271;49.464;11.070;2023-01-19T02:26:44;17.40;;;8.40;;
4517;SDS011;2271;49.464;11.070;2023-01-19T02:29:15;15.37;;;8.17;;
4517;SDS011;2271;49.464;11.070;2023-01-19T02:31:42;17.00;;;8.50;;
4517;SDS011;2271;49.464;11.070;2023-01-19T02:34:13;15.50;;;8.73;;
4517;SDS011;2271;49.464;11.070;2023-01-19T02:39:44;12.27;;;8.50;;
4517;SDS011;2271;49.464;11.070;2023-01-19T02:42:30;11.83;;;8.50;;
4517;SDS011;2271;49.464;11.070;2023-01-19T02:45:11;18.07;;;8.50;;
4517;SDS011;2271;49.464;11.070;2023-01-19T02:47:42;16.37;;;8.90;;
4517;SDS011;2271;49.464;11.070;2023-01-19T02:50:27;14.37;;;8.83;;
4517;SDS011;2271;49.464;11.070;2023-01-19T02:55:57;10.97;;;7.73;;
4517;SDS011;2271;49.464;11.070;2023-01-19T02:58:39;12.53;;;7.77;;
4517;SDS011;2271;49.464;11.070;2023-01-19T03:01:16;17.03;;;8.20;;
4517;SDS011;2271;49.464;11.070;2023-01-19T03:09:11;14.57;;;9.03;;
4517;SDS011;2271;49.464;11.070;2023-01-19T03:11:56;14.80;;;9.33;;
4517;SDS011;2271;49.464;11.070;2023-01-19T03:14:33;12.37;;;8.10;;
4517;SDS011;2271;49.464;11.070;2023-01-19T03:17:04;15.83;;;8.33;;
4517;SDS011;2271;49.464;11.070;2023-01-19T03:19:38;12.00;;;7.47;;
4517;SDS011;2271;49.464;11.070;2023-01-19T03:22:08;12.40;;;8.27;;
4517;SDS011;2271;49.464;11.070;2023-01-19T03:24:37;12.23;;;7.47;;
4517;SDS011;2271;49.464;11.070;2023-01-19T03:27:14;12.67;;;7.97;;
4517;SDS011;2271;49.464;11.070;2023-01-19T03:29:51;11.27;;;7.27;;
4517;SDS011;2271;49.464;11.070;2023-01-19T03:32:20;11.03;;;6.97;;
4517;SDS011;2271;49.464;11.070;2023-01-19T03:34:53;14.37;;;7.67;;
4517;SDS011;2271;49.464;11.070;2023-01-19T03:37:20;13.30;;;8.37;;
4517;SDS011;2271;49.464;11.070;2023-01-19T03:39:48;11.97;;;8.90;;
4517;SDS011;2271;49.464;11.070;2023-01-19T03:42:14;10.90;;;8.13;;
4517;SDS011;2271;49.464;11.070;2023-01-19T03:44:41;11.17;;;8.27;;
4517;SDS011;2271;49.464;11.070;2023-01-19T03:47:09;12.10;;;7.63;;
4517;SDS011;2271;49.464;11.070;2023-01-19T03:49:37;15.20;;;8.23;;
4517;SDS011;2271;49.464;11.070;2023-01-19T03:52:05;12.40;;;7.97;;
4517;SDS011;2271;49.464;11.070;2023-01-19T03:54:31;11.23;;;7.77;;
4517;SDS011;2271;49.464;11.070;2023-01-19T03:56:56;11.17;;;7.43;;
4517;SDS011;2271;49.464;11.070;2023-01-19T03:59:22;14.80;;;8.30;;
4517;SDS011;2271;49.464;11.070;2023-01-19T04:01:48;14.53;;;8.47;;
4517;SDS011;2271;49.464;11.070;2023-01-19T04:04:13;15.77;;;10.03;;
4517;SDS011;2271;49.464;11.070;2023-01-19T04:06:39;14.27;;;9.37;;
4517;SDS011;2271;49.464;11.070;2023-01-19T04:09:07;16.33;;;9.87;;
4517;SDS011;2271;49.464;11.070;2023-01-19T04:11:33;15.37;;;8.27;;
4517;SDS011;2271;49.464;11.070;2023-01-19T04:13:58;18.63;;;8.67;;
4517;SDS011;2271;49.464;11.070;2023-01-19T04:16:24;12.63;;;9.33;;
4517;SDS011;2271;49.464;11.070;2023-01-19T04:18:49;18.73;;;9.37;;
4517;SDS011;2271;49.464;11.070;2023-01-19T04:21:16;15.33;;;8.50;;
4517;SDS011;2271;49.464;11.070;2023-01-19T04:23:44;10.70;;;7.77;;
4517;SDS011;2271;49.464;11.070;2023-01-19T04:26:10;10.50;;;7.43;;
4517;SDS011;2271;49.464;11.070;2023-01-19T04:28:35;14.40;;;9.33;;
4517;SDS011;2271;49.464;11.070;2023-01-19T04:31:01;12.83;;;7.47;;
4517;SDS011;2271;49.464;11.070;2023-01-19T04:33:28;19.30;;;8.50;;
4517;SDS011;2271;49.464;11.070;2023-01-19T04:35:54;12.10;;;7.63;;
4517;SDS011;2271;49.464;11.070;2023-01-19T04:38:20;12.80;;;8.23;;
4517;SDS011;2271;49.464;11.070;2023-01-19T04:40:47;10.93;;;8.17;;
4517;SDS011;2271;49.464;11.070;2023-01-19T04:43:14;14.87;;;8.23;;
4517;SDS011;2271;49.464;11.070;2023-01-19T04:45:40;13.03;;;8.50;;
4517;SDS011;2271;49.464;11.070;2023-01-19T04:48:05;15.80;;;8.83;;
4517;SDS011;2271;49.464;11.070;2023-01-19T04:50:31;14.83;;;8.73;;
4517;SDS011;2271;49.464;11.070;2023-01-19T04:52:57;14.37;;;8.37;;
4517;SDS011;2271;49.464;11.070;2023-01-19T04:55:23;14.87;;;8.87;;
4517;SDS011;2271;49.464;11.070;2023-01-19T04:57:48;12.67;;;8.13;;
4517;SDS011;2271;49.464;11.070;2023-01-19T05:00:14;15.27;;;7.93;;
4517;SDS011;2271;49.464;11.070;2023-01-19T05:02:40;15.97;;;8.70;;
4517;SDS011;2271;49.464;11.070;2023-01-19T05:05:08;13.23;;;8.20;;
4517;SDS011;2271;49.464;11.070;2023-01-19T05:07:33;12.67;;;7.83;;
4517;SDS011;2271;49.464;11.070;2023-01-19T05:09:59;11.07;;;8.13;;
4517;SDS011;2271;49.464;11.070;2023-01-19T05:12:25;11.73;;;7.63;;
4517;SDS011;2271;49.464;11.070;2023-01-19T05:14:50;15.33;;;9.30;;
4517;SDS011;2271;49.464;11.070;2023-01-19T05:17:16;15.67;;;8.37;;
4517;SDS011;2271;49.464;11.070;2023-01-19T05:19:41;14.93;;;8.40;;
4517;SDS011;2271;49.464;11.070;2023-01-19T05:22:07;10.60;;;7.50;;
4517;SDS011;2271;49.464;11.070;2023-01-19T05:24:33;14.13;;;7.80;;
4517;SDS011;2271;49.464;11.070;2023-01-19T05:26:59;15.73;;;8.93;;
4517;SDS011;2271;49.464;11.070;2023-01-19T05:29:25;10.30;;;6.97;;
4517;SDS011;2271;49.464;11.070;2023-01-19T05:31:51;18.80;;;7.87;;
4517;SDS011;2271;49.464;11.070;2023-01-19T05:34:16;13.20;;;7.93;;
4517;SDS011;2271;49.464;11.070;2023-01-19T05:36:42;10.70;;;7.83;;
4517;SDS011;2271;49.464;11.070;2023-01-19T05:39:08;13.30;;;8.90;;
4517;SDS011;2271;49.464;11.070;2023-01-19T05:41:34;12.13;;;8.53;;
4517;SDS011;2271;49.464;11.070;2023-01-19T05:44:00;17.23;;;8.67;;
4517;SDS011;2271;49.464;11.070;2023-01-19T05:46:25;12.43;;;8.73;;
4517;SDS011;2271;49.464;11.070;2023-01-19T05:48:51;13.57;;;8.27;;
4517;SDS011;2271;49.464;11.070;2023-01-19T05:51:17;13.13;;;8.53;;
4517;SDS011;2271;49.464;11.070;2023-01-19T05:53:42;10.33;;;7.63;;
4517;SDS011;2271;49.464;11.070;2023-01-19T05:56:08;13.00;;;8.03;;
4517;SDS011;2271;49.464;11.070;2023-01-19T05:58:35;11.17;;;8.70;;
4517;SDS011;2271;49.464;11.070;2023-01-19T06:01:04;15.30;;;7.93;;
4517;SDS011;2271;49.464;11.070;2023-01-19T06:03:31;13.27;;;7.77;;
4517;SDS011;2271;49.464;11.070;2023-01-19T06:05:58;15.43;;;8.20;;
4517;SDS011;2271;49.464;11.070;2023-01-19T06:08:24;12.70;;;7.93;;
4517;SDS011;2271;49.464;11.070;2023-01-19T06:10:50;13.43;;;8.23;;
4517;SDS011;2271;49.464;11.070;2023-01-19T06:13:16;11.13;;;8.27;;
4517;SDS011;2271;49.464;11.070;2023-01-19T06:15:42;13.73;;;8.40;;
4517;SDS011;2271;49.464;11.070;2023-01-19T06:18:09;16.30;;;8.90;;
4517;SDS011;2271;49.464;11.070;2023-01-19T06:20:35;14.93;;;8.53;;
4517;SDS011;2271;49.464;11.070;2023-01-19T06:23:01;18.70;;;10.07;;
4517;SDS011;2271;49.464;11.070;2023-01-19T06:25:27;15.53;;;8.80;;
4517;SDS011;2271;49.464;11.070;2023-01-19T06:27:53;13.73;;;7.83;;
4517;SDS011;2271;49.464;11.070;2023-01-19T06:30:19;12.37;;;8.63;;
4517;SDS011;2271;49.464;11.070;2023-01-19T06:32:45;13.20;;;8.37;;
4517;SDS011;2271;49.464;11.070;2023-01-19T06:35:11;13.23;;;8.50;;
4517;SDS011;2271;49.464;11.070;2023-01-19T06:37:37;13.60;;;8.37;;
4517;SDS011;2271;49.464;11.070;2023-01-19T06:40:03;17.80;;;7.37;;
4517;SDS011;2271;49.464;11.070;2023-01-19T06:42:29;15.93;;;10.00;;
4517;SDS011;2271;49.464;11.070;2023-01-19T06:44:55;15.00;;;9.50;;
4517;SDS011;2271;49.464;11.070;2023-01-19T06:47:21;11.77;;;7.50;;
4517;SDS011;2271;49.464;11.070;2023-01-19T06:49:47;14.27;;;9.10;;
4517;SDS011;2271;49.464;11.070;2023-01-19T06:52:13;14.23;;;8.23;;
4517;SDS011;2271;49.464;11.070;2023-01-19T06:54:40;12.57;;;8.40;;
4517;SDS011;2271;49.464;11.070;2023-01-19T06:57:07;8.50;;;6.67;;
4517;SDS011;2271;49.464;11.070;2023-01-19T06:59:33;12.30;;;8.37;;
4517;SDS011;2271;49.464;11.070;2023-01-19T07:01:59;14.40;;;8.47;;
4517;SDS011;2271;49.464;11.070;2023-01-19T07:04:24;11.50;;;8.00;;
4517;SDS011;2271;49.464;11.070;2023-01-19T07:06:51;15.67;;;8.77;;
4517;SDS011;2271;49.464;11.070;2023-01-19T07:09:16;13.80;;;8.57;;
4517;SDS011;2271;49.464;11.070;2023-01-19T07:11:44;12.13;;;7.80;;
4517;SDS011;2271;49.464;11.070;2023-01-19T07:14:10;12.07;;;7.17;;
4517;SDS011;2271;49.464;11.070;2023-01-19T07:16:36;14.80;;;8.27;;
4517;SDS011;2271;49.464;11.070;2023-01-19T07:19:01;14.97;;;8.30;;
4517;SDS011;2271;49.464;11.070;2023-01-19T07:21:27;12.80;;;7.97;;
4517;SDS011;2271;49.464;11.070;2023-01-19T07:23:53;12.83;;;8.40;;
4517;SDS011;2271;49.464;11.070;2023-01-19T07:26:19;12.70;;;8.67;;
4517;SDS011;2271;49.464;11.070;2023-01-19T07:28:48;12.10;;;7.93;;
4517;SDS011;2271;49.464;11.070;2023-01-19T07:31:14;16.13;;;8.57;;
4517;SDS011;2271;49.464;11.070;2023-01-19T07:33:40;11.03;;;7.97;;
4517;SDS011;2271;49.464;11.070;2023-01-19T07:36:06;14.60;;;8.00;;
4517;SDS011;2271;49.464;11.070;2023-01-19T07:38:33;11.40;;;7.47;;
4517;SDS011;2271;49.464;11.070;2023-01-19T07:40:59;10.03;;;7.73;;
4517;SDS011;2271;49.464;11.070;2023-01-19T07:43:25;15.57;;;7.90;;
4517;SDS011;2271;49.464;11.070;2023-01-19T07:45:51;14.17;;;8.23;;
4517;SDS011;2271;49.464;11.070;2023-01-19T07:48:20;11.73;;;8.10;;
4517;SDS011;2271;49.464;11.070;2023-01-19T07:50:45;11.63;;;8.23;;
4517;SDS011;2271;49.464;11.070;2023-01-19T07:53:11;11.57;;;7.50;;
4517;SDS011;2271;49.464;11.070;2023-01-19T07:55:36;12.73;;;8.77;;
4517;SDS011;2271;49.464;11.070;2023-01-19T07:58:02;15.70;;;8.57;;
4517;SDS011;2271;49.464;11.070;2023-01-19T08:00:31;13.13;;;8.07;;
4517;SDS011;2271;49.464;11.070;2023-01-19T08:02:58;10.13;;;7.43;;
4517;SDS011;2271;49.464;11.070;2023-01-19T08:05:24;13.27;;;8.50;;
4517;SDS011;2271;49.464;11.070;2023-01-19T08:07:51;13.13;;;8.00;;
4517;SDS011;2271;49.464;11.070;2023-01-19T08:10:17;11.90;;;7.83;;
4517;SDS011;2271;49.464;11.070;2023-01-19T08:12:42;10.63;;;7.17;;
4517;SDS011;2271;49.464;11.070;2023-01-19T08:15:08;13.47;;;8.47;;
4517;SDS011;2271;49.464;11.070;2023-01-19T08:17:34;21.27;;;7.93;;
4517;SDS011;2271;49.464;11.070;2023-01-19T08:20:00;11.93;;;6.90;;
4517;SDS011;2271;49.464;11.070;2023-01-19T08:22:27;8.50;;;6.53;;
4517;SDS011;2271;49.464;11.070;2023-01-19T08:24:52;10.07;;;7.50;;
4517;SDS011;2271;49.464;11.070;2023-01-19T08:27:18;12.03;;;7.57;;
4517;SDS011;2271;49.464;11.070;2023-01-19T08:29:44;14.27;;;7.30;;
4517;SDS011;2271;49.464;11.070;2023-01-19T08:32:10;13.27;;;7.23;;
4517;SDS011;2271;49.464;11.070;2023-01-19T08:34:36;10.37;;;7.50;;
4517;SDS011;2271;49.464;11.070;2023-01-19T08:37:01;10.83;;;7.33;;
4517;SDS011;2271;49.464;11.070;2023-01-19T08:39:27;12.63;;;6.83;;
4517;SDS011;2271;49.464;11.070;2023-01-19T08:41:52;9.27;;;6.87;;
4517;SDS011;2271;49.464;11.070;2023-01-19T08:44:18;12.63;;;7.73;;
4517;SDS011;2271;49.464;11.070;2023-01-19T08:46:44;14.17;;;8.13;;
4517;SDS011;2271;49.464;11.070;2023-01-19T08:49:11;13.70;;;7.67;;
4517;SDS011;2271;49.464;11.070;2023-01-19T08:51:36;10.30;;;7.27;;
4517;SDS011;2271;49.464;11.070;2023-01-19T08:54:02;11.00;;;7.90;;
4517;SDS011;2271;49.464;11.070;2023-01-19T08:56:28;13.00;;;7.63;;
4517;SDS011;2271;49.464;11.070;2023-01-19T08:58:54;9.10;;;7.17;;
4517;SDS011;2271;49.464;11.070;2023-01-19T09:01:19;11.27;;;6.73;;
4517;SDS011;2271;49.464;11.070;2023-01-19T09:03:46;16.47;;;7.07;;
4517;SDS011;2271;49.464;11.070;2023-01-19T09:06:14;9.87;;;6.50;;
4517;SDS011;2271;49.464;11.070;2023-01-19T09:08:42;10.77;;;7.27;;
4517;SDS011;2271;49.464;11.070;2023-01-19T09:11:09;9.53;;;6.13;;
4517;SDS011;2271;49.464;11.070;2023-01-19T09:13:35;11.37;;;6.57;;
4517;SDS011;2271;49.464;11.070;2023-01-19T09:16:04;6.73;;;5.93;;
4517;SDS011;2271;49.464;11.070;2023-01-19T09:18:35;11.37;;;6.47;;
4517;SDS011;2271;49.464;11.070;2023-01-19T09:21:01;11.73;;;6.07;;
4517;SDS011;2271;49.464;11.070;2023-01-19T09:23:27;8.80;;;6.50;;
4517;SDS011;2271;49.464;11.070;2023-01-19T09:25:57;9.30;;;6.37;;
4517;SDS011;2271;49.464;11.070;2023-01-19T09:28:25;8.33;;;6.13;;
4517;SDS011;2271;49.464;11.070;2023-01-19T09:30:51;7.90;;;5.77;;
4517;SDS011;2271;49.464;11.070;2023-01-19T09:33:18;12.77;;;6.07;;
4517;SDS011;2271;49.464;11.070;2023-01-19T09:35:44;9.60;;;6.20;;
4517;SDS011;2271;49.464;11.070;2023-01-19T09:38:11;9.60;;;5.70;;
4517;SDS011;2271;49.464;11.070;2023-01-19T09:40:43;9.77;;;6.00;;
4517;SDS011;2271;49.464;11.070;2023-01-19T09:45:45;7.57;;;5.83;;
4517;SDS011;2271;49.464;11.070;2023-01-19T09:51:23;6.53;;;5.50;;
4517;SDS011;2271;49.464;11.070;2023-01-19T09:53:54;9.83;;;6.53;;
4517;SDS011;2271;49.464;11.070;2023-01-19T09:56:30;9.73;;;5.33;;
4517;SDS011;2271;49.464;11.070;2023-01-19T09:58:57;9.33;;;5.47;;
4517;SDS011;2271;49.464;11.070;2023-01-19T10:04:35;7.30;;;5.23;;
4517;SDS011;2271;49.464;11.070;2023-01-19T10:07:08;9.60;;;5.73;;
4517;SDS011;2271;49.464;11.070;2023-01-19T10:12:28;7.93;;;4.60;;
4517;SDS011;2271;49.464;11.070;2023-01-19T10:15:13;6.43;;;5.00;;
4517;SDS011;2271;49.464;11.070;2023-01-19T10:20:30;8.87;;;5.03;;
4517;SDS011;2271;49.464;11.070;2023-01-19T10:23:00;7.43;;;5.00;;
4517;SDS011;2271;49.464;11.070;2023-01-19T10:25:37;6.03;;;4.80;;
4517;SDS011;2271;49.464;11.070;2023-01-19T10:28:03;6.63;;;4.90;;
4517;SDS011;2271;49.464;11.070;2023-01-19T10:30:29;7.53;;;4.60;;
4517;SDS011;2271;49.464;11.070;2023-01-19T10:32:54;6.33;;;4.10;;
4517;SDS011;2271;49.464;11.070;2023-01-19T10:35:21;9.17;;;4.53;;
4517;SDS011;2271;49.464;11.070;2023-01-19T10:37:52;5.90;;;4.60;;
4517;SDS011;2271;49.464;11.070;2023-01-19T10:40:34;6.47;;;5.17;;
4517;SDS011;2271;49.464;11.070;2023-01-19T10:46:06;5.27;;;4.10;;
4517;SDS011;2271;49.464;11.070;2023-01-19T10:48:41;10.33;;;4.83;;
4517;SDS011;2271;49.464;11.070;2023-01-19T10:51:08;6.93;;;5.23;;
4517;SDS011;2271;49.464;11.070;2023-01-19T10:53:35;6.67;;;4.80;;
4517;SDS011;2271;49.464;11.070;2023-01-19T10:56:09;9.07;;;4.43;;
4517;SDS011;2271;49.464;11.070;2023-01-19T10:58:40;6.67;;;4.60;;
4517;SDS011;2271;49.464;11.070;2023-01-19T11:03:46;6.17;;;3.83;;
4517;SDS011;2271;49.464;11.070;2023-01-19T11:08:38;6.10;;;4.37;;
4517;SDS011;2271;49.464;11.070;2023-01-19T11:11:04;6.80;;;4.10;;
4517;SDS011;2271;49.464;11.070;2023-01-19T11:13:32;8.53;;;5.73;;
4517;SDS011;2271;49.464;11.070;2023-01-19T11:16:07;11.13;;;4.33;;
4517;SDS011;2271;49.464;11.070;2023-01-19T11:18:43;5.43;;;3.53;;
4517;SDS011;2271;49.464;11.070;2023-01-19T11:21:11;6.47;;;4.73;;
4517;SDS011;2271;49.464;11.070;2023-01-19T11:23:45;5.13;;;4.17;;
4517;SDS011;2271;49.464;11.070;2023-01-19T11:26:23;6.20;;;3.63;;
4517;SDS011;2271;49.464;11.070;2023-01-19T11:28:51;11.50;;;4.60;;
4517;SDS011;2271;49.464;11.070;2023-01-19T11:34:00;5.87;;;3.90;;
4517;SDS011;2271;49.464;11.070;2023-01-19T11:36:29;4.33;;;3.60;;
4517;SDS011;2271;49.464;11.070;2023-01-19T11:38:57;6.97;;;3.90;;
4517;SDS011;2271;49.464;11.070;2023-01-19T11:41:34;5.67;;;3.70;;
4517;SDS011;2271;49.464;11.070;2023-01-19T11:44:25;4.37;;;2.80;;
4517;SDS011;2271;49.464;11.070;2023-01-19T11:46:55;5.30;;;3.37;;
4517;SDS011;2271;49.464;11.070;2023-01-19T11:49:54;5.60;;;3.53;;
4517;SDS011;2271;49.464;11.070;2023-01-19T11:52:39;5.10;;;3.33;;
4517;SDS011;2271;49.464;11.070;2023-01-19T11:58:05;3.90;;;2.70;;
4517;SDS011;2271;49.464;11.070;2023-01-19T12:03:42;5.67;;;2.90;;
4517;SDS011;2271;49.464;11.070;2023-01-19T12:06:11;7.23;;;2.97;;
4517;SDS011;2271;49.464;11.070;2023-01-19T12:08:44;3.67;;;3.00;;
4517;SDS011;2271;49.464;11.070;2023-01-19T12:11:17;6.27;;;3.07;;
4517;SDS011;2271;49.464;11.070;2023-01-19T12:13:47;4.47;;;3.43;;
4517;SDS011;2271;49.464;11.070;2023-01-19T12:16:19;5.03;;;2.90;;
4517;SDS011;2271;49.464;11.070;2023-01-19T12:18:54;3.83;;;2.87;;
4517;SDS011;2271;49.464;11.070;2023-01-19T12:21:24;3.67;;;3.20;;
4517;SDS011;2271;49.464;11.070;2023-01-19T12:29:14;4.57;;;2.93;;
4517;SDS011;2271;49.464;11.070;2023-01-19T12:31:42;3.20;;;2.90;;
4517;SDS011;2271;49.464;11.070;2023-01-19T12:37:00;8.00;;;3.83;;
4517;SDS011;2271;49.464;11.070;2023-01-19T12:39:28;7.77;;;3.67;;
4517;SDS011;2271;49.464;11.070;2023-01-19T12:42:12;5.47;;;3.00;;
4517;SDS011;2271;49.464;11.070;2023-01-19T12:44:41;10.70;;;3.47;;
4517;SDS011;2271;49.464;11.070;2023-01-19T12:52:24;3.87;;;3.13;;
4517;SDS011;2271;49.464;11.070;2023-01-19T12:54:52;7.87;;;3.80;;
4517;SDS011;2271;49.464;11.070;2023-01-19T13:02:49;4.83;;;2.77;;
4517;SDS011;2271;49.464;11.070;2023-01-19T13:05:23;5.60;;;3.47;;
4517;SDS011;2271;49.464;11.070;2023-01-19T13:13:38;6.93;;;2.90;;
4517;SDS011;2271;49.464;11.070;2023-01-19T13:18:42;3.50;;;2.70;;
4517;SDS011;2271;49.464;11.070;2023-01-19T13:21:10;4.53;;;2.70;;
4517;SDS011;2271;49.464;11.070;2023-01-19T13:26:35;4.63;;;3.30;;
4517;SDS011;2271;49.464;11.070;2023-01-19T13:29:09;6.10;;;3.67;;
4517;SDS011;2271;49.464;11.070;2023-01-19T13:31:40;6.27;;;3.80;;
4517;SDS011;2271;49.464;11.070;2023-01-19T13:34:43;6.87;;;3.20;;
4517;SDS011;2271;49.464;11.070;2023-01-19T13:37:04;4.10;;;3.40;;
4517;SDS011;2271;49.464;11.070;2023-01-19T13:39:36;4.67;;;3.60;;
4517;SDS011;2271;49.464;11.070;2023-01-19T13:42:06;5.33;;;3.30;;
4517;SDS011;2271;49.464;11.070;2023-01-19T13:44:51;6.40;;;3.87;;
4517;SDS011;2271;49.464;11.070;2023-01-19T13:47:20;6.27;;;4.70;;
4517;SDS011;2271;49.464;11.070;2023-01-19T13:49:50;4.37;;;2.93;;
4517;SDS011;2271;49.464;11.070;2023-01-19T13:54:51;4.63;;;3.40;;
4517;SDS011;2271;49.464;11.070;2023-01-19T14:02:35;5.13;;;3.60;;
4517;SDS011;2271;49.464;11.070;2023-01-19T14:05:12;11.10;;;3.90;;
4517;SDS011;2271;49.464;11.070;2023-01-19T14:07:58;3.87;;;2.83;;
4517;SDS011;2271;49.464;11.070;2023-01-19T14:16:00;5.80;;;3.87;;
4517;SDS011;2271;49.464;11.070;2023-01-19T14:18:30;5.17;;;3.47;;
4517;SDS011;2271;49.464;11.070;2023-01-19T14:21:01;3.97;;;3.40;;
4517;SDS011;2271;49.464;11.070;2023-01-19T14:34:36;8.23;;;3.67;;
4517;SDS011;2271;49.464;11.070;2023-01-19T14:37:26;5.90;;;3.77;;
4517;SDS011;2271;49.464;11.070;2023-01-19T14:42:49;4.23;;;3.37;;
4517;SDS011;2271;49.464;11.070;2023-01-19T14:45:17;7.20;;;3.20;;
4517;SDS011;2271;49.464;11.070;2023-01-19T14:47:45;5.20;;;3.20;;
4517;SDS011;2271;49.464;11.070;2023-01-19T14:55:20;6.17;;;4.47;;
4517;SDS011;2271;49.464;11.070;2023-01-19T14:57:53;8.97;;;5.37;;
4517;SDS011;2271;49.464;11.070;2023-01-19T15:00:19;7.07;;;5.30;;
4517;SDS011;2271;49.464;11.070;2023-01-19T15:02:48;9.50;;;5.03;;
4517;SDS011;2271;49.464;11.070;2023-01-19T15:05:14;5.70;;;4.07;;
4517;SDS011;2271;49.464;11.070;2023-01-19T15:07:41;5.83;;;3.43;;
4517;SDS011;2271;49.464;11.070;2023-01-19T15:10:09;5.77;;;4.47;;
4517;SDS011;2271;49.464;11.070;2023-01-19T15:12:44;3.93;;;3.53;;
4517;SDS011;2271;49.464;11.070;2023-01-19T15:15:21;7.07;;;4.10;;
4517;SDS011;2271;49.464;11.070;2023-01-19T15:17:53;7.23;;;4.20;;
4517;SDS011;2271;49.464;11.070;2023-01-19T15:20:19;6.37;;;3.83;;
4517;SDS011;2271;49.464;11.070;2023-01-19T15:22:46;11.53;;;4.67;;
4517;SDS011;2271;49.464;11.070;2023-01-19T15:25:12;4.70;;;3.20;;
4517;SDS011;2271;49.464;11.070;2023-01-19T15:27:39;4.47;;;3.33;;
4517;SDS011;2271;49.464;11.070;2023-01-19T15:30:16;4.77;;;3.23;;
4517;SDS011;2271;49.464;11.070;2023-01-19T15:32:47;5.17;;;3.53;;
4517;SDS011;2271;49.464;11.070;2023-01-19T15:35:17;4.90;;;2.77;;
4517;SDS011;2271;49.464;11.070;2023-01-19T15:37:44;8.73;;;3.63;;
4517;SDS011;2271;49.464;11.070;2023-01-19T15:40:11;11.00;;;3.57;;
4517;SDS011;2271;49.464;11.070;2023-01-19T15:42:38;8.17;;;3.47;;
4517;SDS011;2271;49.464;11.070;2023-01-19T15:48:02;6.23;;;3.50;;
4517;SDS011;2271;49.464;11.070;2023-01-19T15:50:34;4.23;;;2.80;;
4517;SDS011;2271;49.464;11.070;2023-01-19T15:53:03;5.17;;;3.80;;
4517;SDS011;2271;49.464;11.070;2023-01-19T15:55:29;5.50;;;4.07;;
4517;SDS011;2271;49.464;11.070;2023-01-19T15:57:55;8.27;;;4.57;;
4517;SDS011;2271;49.464;11.070;2023-01-19T16:00:25;6.97;;;3.87;;
4517;SDS011;2271;49.464;11.070;2023-01-19T16:02:52;5.63;;;4.30;;
4517;SDS011;2271;49.464;11.070;2023-01-19T16:05:18;6.17;;;3.47;;
4517;SDS011;2271;49.464;11.070;2023-01-19T16:07:44;5.50;;;3.70;;
4517;SDS011;2271;49.464;11.070;2023-01-19T16:10:09;5.70;;;4.43;;
4517;SDS011;2271;49.464;11.070;2023-01-19T16:12:36;12.60;;;7.63;;
4517;SDS011;2271;49.464;11.070;2023-01-19T16:15:02;7.23;;;4.20;;
4517;SDS011;2271;49.464;11.070;2023-01-19T16:17:28;5.40;;;3.90;;
4517;SDS011;2271;49.464;11.070;2023-01-19T16:19:54;4.43;;;3.57;;
4517;SDS011;2271;49.464;11.070;2023-01-19T16:22:19;7.17;;;3.77;;
4517;SDS011;2271;49.464;11.070;2023-01-19T16:24:45;5.30;;;4.07;;
4517;SDS011;2271;49.464;11.070;2023-01-19T16:27:11;6.20;;;4.00;;
4517;SDS011;2271;49.464;11.070;2023-01-19T16:29:36;4.43;;;3.87;;
4517;SDS011;2271;49.464;11.070;2023-01-19T16:32:02;4.83;;;4.03;;
4517;SDS011;2271;49.464;11.070;2023-01-19T16:34:28;6.57;;;4.20;;
4517;SDS011;2271;49.464;11.070;2023-01-19T16:36:53;5.40;;;4.10;;
4517;SDS011;2271;49.464;11.070;2023-01-19T16:39:19;4.67;;;3.60;;
4517;SDS011;2271;49.464;11.070;2023-01-19T16:41:45;7.30;;;4.47;;
4517;SDS011;2271;49.464;11.070;2023-01-19T16:44:12;5.83;;;4.37;;
4517;SDS011;2271;49.464;11.070;2023-01-19T16:46:40;6.30;;;4.30;;
4517;SDS011;2271;49.464;11.070;2023-01-19T16:49:12;10.83;;;5.77;;
4517;SDS011;2271;49.464;11.070;2023-01-19T16:51:39;12.27;;;5.63;;